sensor_id;sensor_type;location;lat;lon;timestamp;temperature;humidity
292;DHT22;23311;48.776;9.162;2023-10-31T00:00:55;11.70;95.50
292;DHT22;23311;48.776;9.162;2023-10-31T00:03:23;11.70;95.50
292;DHT22;23311;48.776;9.162;2023-10-31T00:05:52;11.70;95.50
292;DHT22;23311;48.776;9.162;2023-10-31T00:08:20;11.70;95.50
292;DHT22;23311;48.776;9.162;2023-10-31T00:10:48;11.60;95.50
292;DHT22;23311;48.776;9.162;2023-10-31T00:13:16;11.60;95.50
292;DHT22;23311;48.776;9.162;2023-10-31T00:15:45;11.60;95.50
292;DHT22;23311;48.776;9.162;2023-10-31T00:18:14;11.70;95.50
292;DHT22;23311;48.776;9.162;2023-10-31T00:20:42;11.70;95.50
292;DHT22;23311;48.776;9.162;2023-10-31T00:23:10;11.70;95.50
292;DHT22;23311;48.776;9.162;2023-10-31T00:25:38;11.60;95.50
292;DHT22;23311;48.776;9.162;2023-10-31T00:28:06;11.60;95.50
292;DHT22;23311;48.776;9.162;2023-10-31T00:30:34;11.70;95.50
292;DHT22;23311;48.776;9.162;2023-10-31T00:33:04;11.80;95.50
292;DHT22;23311;48.776;9.162;2023-10-31T00:35:32;11.90;95.50
292;DHT22;23311;48.776;9.162;2023-10-31T00:38:00;11.80;95.50
292;DHT22;23311;48.776;9.162;2023-10-31T00:40:28;11.70;95.50
292;DHT22;23311;48.776;9.162;2023-10-31T00:42:56;11.60;95.50
292;DHT22;23311;48.776;9.162;2023-10-31T00:45:25;11.70;95.50
292;DHT22;23311;48.776;9.162;2023-10-31T00:47:53;11.70;95.50
292;DHT22;23311;48.776;9.162;2023-10-31T00:50:23;11.70;95.50
292;DHT22;23311;48.776;9.162;2023-10-31T00:52:51;11.70;95.50
292;DHT22;23311;48.776;9.162;2023-10-31T00:55:19;11.70;95.50
292;DHT22;23311;48.776;9.162;2023-10-31T00:57:47;11.70;95.50
292;DHT22;23311;48.776;9.162;2023-10-31T01:00:16;11.60;95.50
292;DHT22;23311;48.776;9.162;2023-10-31T01:02:44;11.60;95.50
292;DHT22;23311;48.776;9.162;2023-10-31T01:05:13;11.50;95.50
292;DHT22;23311;48.776;9.162;2023-10-31T01:07:42;11.50;95.50
292;DHT22;23311;48.776;9.162;2023-10-31T01:10:10;11.30;95.50
292;DHT22;23311;48.776;9.162;2023-10-31T01:12:38;11.40;95.50
292;DHT22;23311;48.776;9.162;2023-10-31T01:15:07;11.20;95.50
292;DHT22;23311;48.776;9.162;2023-10-31T01:17:35;11.20;95.50
292;DHT22;23311;48.776;9.162;2023-10-31T01:20:04;11.00;95.50
292;DHT22;23311;48.776;9.162;2023-10-31T01:22:33;10.90;95.50
292;DHT22;23311;48.776;9.162;2023-10-31T01:25:03;10.80;95.50
292;DHT22;23311;48.776;9.162;2023-10-31T01:27:32;10.50;95.50
292;DHT22;23311;48.776;9.162;2023-10-31T01:30:07;10.40;95.50
292;DHT22;23311;48.776;9.162;2023-10-31T01:32:35;10.30;95.50
292;DHT22;23311;48.776;9.162;2023-10-31T01:35:04;10.20;95.50
292;DHT22;23311;48.776;9.162;2023-10-31T01:37:32;10.20;95.50
292;DHT22;23311;48.776;9.162;2023-10-31T01:40:02;10.20;95.50
292;DHT22;23311;48.776;9.162;2023-10-31T01:42:31;10.10;95.50
292;DHT22;23311;48.776;9.162;2023-10-31T01:44:59;10.10;95.50
292;DHT22;23311;48.776;9.162;2023-10-31T01:47:28;10.00;95.50
292;DHT22;23311;48.776;9.162;2023-10-31T01:49:56;10.10;95.50
292;DHT22;23311;48.776;9.162;2023-10-31T01:52:25;10.00;95.50
292;DHT22;23311;48.776;9.162;2023-10-31T01:54:54;10.20;95.50
292;DHT22;23311;48.776;9.162;2023-10-31T01:57:23;10.20;95.50
292;DHT22;23311;48.776;9.162;2023-10-31T01:59:52;10.40;95.50
292;DHT22;23311;48.776;9.162;2023-10-31T02:02:23;10.50;95.50
292;DHT22;23311;48.776;9.162;2023-10-31T02:04:53;10.50;95.50
292;DHT22;23311;48.776;9.162;2023-10-31T02:07:21;10.40;95.50
292;DHT22;23311;48.776;9.162;2023-10-31T02:09:50;10.30;95.50
292;DHT22;23311;48.776;9.162;2023-10-31T02:12:33;10.20;95.50
292;DHT22;23311;48.776;9.162;2023-10-31T02:15:03;10.20;95.50
292;DHT22;23311;48.776;9.162;2023-10-31T02:17:32;10.10;95.50
292;DHT22;23311;48.776;9.162;2023-10-31T02:20:01;10.00;95.50
292;DHT22;23311;48.776;9.162;2023-10-31T02:22:33;10.00;95.50
292;DHT22;23311;48.776;9.162;2023-10-31T02:25:01;10.00;95.50
292;DHT22;23311;48.776;9.162;2023-10-31T02:27:30;9.90;95.50
292;DHT22;23311;48.776;9.162;2023-10-31T02:29:58;9.90;95.50
292;DHT22;23311;48.776;9.162;2023-10-31T02:32:26;10.10;95.50
292;DHT22;23311;48.776;9.162;2023-10-31T02:34:55;10.00;95.50
292;DHT22;23311;48.776;9.162;2023-10-31T02:37:23;9.90;95.50
292;DHT22;23311;48.776;9.162;2023-10-31T02:39:53;10.00;95.50
292;DHT22;23311;48.776;9.162;2023-10-31T02:42:21;10.00;95.50
292;DHT22;23311;48.776;9.162;2023-10-31T02:44:53;10.10;95.50
292;DHT22;23311;48.776;9.162;2023-10-31T02:47:21;10.10;95.50
292;DHT22;23311;48.776;9.162;2023-10-31T02:49:50;10.20;95.50
292;DHT22;23311;48.776;9.162;2023-10-31T02:52:21;10.30;95.50
292;DHT22;23311;48.776;9.162;2023-10-31T02:54:50;10.40;95.50
292;DHT22;23311;48.776;9.162;2023-10-31T02:57:20;10.40;95.50
292;DHT22;23311;48.776;9.162;2023-10-31T02:59:48;10.40;95.50
292;DHT22;23311;48.776;9.162;2023-10-31T03:02:17;10.40;95.50
292;DHT22;23311;48.776;9.162;2023-10-31T03:04:45;10.30;95.50
292;DHT22;23311;48.776;9.162;2023-10-31T03:07:14;10.30;95.50
292;DHT22;23311;48.776;9.162;2023-10-31T03:09:42;10.30;95.50
292;DHT22;23311;48.776;9.162;2023-10-31T03:12:11;10.20;95.50
292;DHT22;23311;48.776;9.162;2023-10-31T03:14:41;10.20;95.50
292;DHT22;23311;48.776;9.162;2023-10-31T03:17:09;10.30;95.50
292;DHT22;23311;48.776;9.162;2023-10-31T03:19:38;10.40;95.50
292;DHT22;23311;48.776;9.162;2023-10-31T03:22:06;10.50;95.50
292;DHT22;23311;48.776;9.162;2023-10-31T03:24:35;10.50;95.50
292;DHT22;23311;48.776;9.162;2023-10-31T03:27:03;10.40;95.50
292;DHT22;23311;48.776;9.162;2023-10-31T03:29:32;10.40;95.50
292;DHT22;23311;48.776;9.162;2023-10-31T03:32:01;10.50;95.50
292;DHT22;23311;48.776;9.162;2023-10-31T03:34:30;10.50;95.50
292;DHT22;23311;48.776;9.162;2023-10-31T03:36:58;10.40;95.50
292;DHT22;23311;48.776;9.162;2023-10-31T03:39:26;10.40;95.50
292;DHT22;23311;48.776;9.162;2023-10-31T03:41:55;10.40;95.50
292;DHT22;23311;48.776;9.162;2023-10-31T03:44:23;10.40;95.50
292;DHT22;23311;48.776;9.162;2023-10-31T03:46:52;10.30;95.50
292;DHT22;23311;48.776;9.162;2023-10-31T03:49:21;10.30;95.50
292;DHT22;23311;48.776;9.162;2023-10-31T03:51:49;10.30;95.50
292;DHT22;23311;48.776;9.162;2023-10-31T03:54:17;10.20;95.50
292;DHT22;23311;48.776;9.162;2023-10-31T03:56:45;10.10;95.50
292;DHT22;23311;48.776;9.162;2023-10-31T03:59:14;10.20;95.50
292;DHT22;23311;48.776;9.162;2023-10-31T04:01:42;10.20;95.50
292;DHT22;23311;48.776;9.162;2023-10-31T04:04:11;10.10;95.50
292;DHT22;23311;48.776;9.162;2023-10-31T04:06:40;10.10;95.50
292;DHT22;23311;48.776;9.162;2023-10-31T04:09:09;10.10;95.50
292;DHT22;23311;48.776;9.162;2023-10-31T04:11:37;10.10;95.50
292;DHT22;23311;48.776;9.162;2023-10-31T04:14:06;10.00;95.50
292;DHT22;23311;48.776;9.162;2023-10-31T04:16:38;10.00;95.50
292;DHT22;23311;48.776;9.162;2023-10-31T04:19:07;10.00;95.50
292;DHT22;23311;48.776;9.162;2023-10-31T04:21:35;10.10;95.50
292;DHT22;23311;48.776;9.162;2023-10-31T04:24:06;10.00;95.50
292;DHT22;23311;48.776;9.162;2023-10-31T04:26:34;10.00;95.50
292;DHT22;23311;48.776;9.162;2023-10-31T04:29:02;10.00;95.50
292;DHT22;23311;48.776;9.162;2023-10-31T04:31:30;9.90;95.50
292;DHT22;23311;48.776;9.162;2023-10-31T04:34:10;10.00;95.50
292;DHT22;23311;48.776;9.162;2023-10-31T04:36:38;9.90;95.50
292;DHT22;23311;48.776;9.162;2023-10-31T04:39:08;9.80;95.50
292;DHT22;23311;48.776;9.162;2023-10-31T04:41:36;9.80;95.50
292;DHT22;23311;48.776;9.162;2023-10-31T04:44:05;9.80;95.50
292;DHT22;23311;48.776;9.162;2023-10-31T04:46:34;9.80;95.50
292;DHT22;23311;48.776;9.162;2023-10-31T04:49:03;9.90;95.50
292;DHT22;23311;48.776;9.162;2023-10-31T04:51:35;10.00;95.50
292;DHT22;23311;48.776;9.162;2023-10-31T04:54:04;10.00;95.50
292;DHT22;23311;48.776;9.162;2023-10-31T04:56:34;9.90;95.50
292;DHT22;23311;48.776;9.162;2023-10-31T04:59:03;9.80;95.50
292;DHT22;23311;48.776;9.162;2023-10-31T05:01:31;9.80;95.50
292;DHT22;23311;48.776;9.162;2023-10-31T05:04:03;9.80;95.50
292;DHT22;23311;48.776;9.162;2023-10-31T05:06:39;9.60;95.50
292;DHT22;23311;48.776;9.162;2023-10-31T05:09:08;9.50;95.50
292;DHT22;23311;48.776;9.162;2023-10-31T05:11:39;9.50;95.50
292;DHT22;23311;48.776;9.162;2023-10-31T05:14:09;9.40;95.50
292;DHT22;23311;48.776;9.162;2023-10-31T05:16:41;9.60;95.50
292;DHT22;23311;48.776;9.162;2023-10-31T05:19:10;9.70;95.50
292;DHT22;23311;48.776;9.162;2023-10-31T05:21:39;9.60;95.50
292;DHT22;23311;48.776;9.162;2023-10-31T05:24:08;9.60;95.50
292;DHT22;23311;48.776;9.162;2023-10-31T05:26:36;9.50;95.50
292;DHT22;23311;48.776;9.162;2023-10-31T05:29:06;9.40;95.50
292;DHT22;23311;48.776;9.162;2023-10-31T05:31:35;9.30;95.50
292;DHT22;23311;48.776;9.162;2023-10-31T05:34:04;9.30;95.50
292;DHT22;23311;48.776;9.162;2023-10-31T05:36:32;9.30;95.50
292;DHT22;23311;48.776;9.162;2023-10-31T05:39:01;9.30;95.50
292;DHT22;23311;48.776;9.162;2023-10-31T05:41:29;9.20;95.50
292;DHT22;23311;48.776;9.162;2023-10-31T05:43:58;9.20;95.50
292;DHT22;23311;48.776;9.162;2023-10-31T05:46:28;9.10;95.50
292;DHT22;23311;48.776;9.162;2023-10-31T05:48:56;9.00;95.50
292;DHT22;23311;48.776;9.162;2023-10-31T05:51:25;9.00;95.50
292;DHT22;23311;48.776;9.162;2023-10-31T05:53:53;9.10;95.50
292;DHT22;23311;48.776;9.162;2023-10-31T05:56:21;9.20;95.50
292;DHT22;23311;48.776;9.162;2023-10-31T05:58:50;9.20;95.50
292;DHT22;23311;48.776;9.162;2023-10-31T06:01:18;9.30;95.50
292;DHT22;23311;48.776;9.162;2023-10-31T06:03:48;9.60;95.50
292;DHT22;23311;48.776;9.162;2023-10-31T06:06:16;9.60;95.50
292;DHT22;23311;48.776;9.162;2023-10-31T06:08:45;9.50;95.50
292;DHT22;23311;48.776;9.162;2023-10-31T06:11:14;9.50;95.50
292;DHT22;23311;48.776;9.162;2023-10-31T06:13:43;9.50;95.50
292;DHT22;23311;48.776;9.162;2023-10-31T06:16:11;9.50;95.50
292;DHT22;23311;48.776;9.162;2023-10-31T06:18:40;9.60;95.50
292;DHT22;23311;48.776;9.162;2023-10-31T06:21:09;9.80;95.50
292;DHT22;23311;48.776;9.162;2023-10-31T06:23:38;9.80;95.50
292;DHT22;23311;48.776;9.162;2023-10-31T06:26:06;9.80;95.50
292;DHT22;23311;48.776;9.162;2023-10-31T06:28:35;9.70;95.50
292;DHT22;23311;48.776;9.162;2023-10-31T06:31:11;9.70;95.50
292;DHT22;23311;48.776;9.162;2023-10-31T06:33:40;9.80;95.50
292;DHT22;23311;48.776;9.162;2023-10-31T06:36:10;9.80;95.50
292;DHT22;23311;48.776;9.162;2023-10-31T06:38:39;9.80;95.50
292;DHT22;23311;48.776;9.162;2023-10-31T06:41:07;9.80;95.50
292;DHT22;23311;48.776;9.162;2023-10-31T06:43:36;9.90;95.50
292;DHT22;23311;48.776;9.162;2023-10-31T06:46:04;9.90;95.50
292;DHT22;23311;48.776;9.162;2023-10-31T06:48:34;9.90;95.50
292;DHT22;23311;48.776;9.162;2023-10-31T06:51:02;9.90;95.50
292;DHT22;23311;48.776;9.162;2023-10-31T06:53:33;10.00;95.50
292;DHT22;23311;48.776;9.162;2023-10-31T06:56:01;10.10;95.50
292;DHT22;23311;48.776;9.162;2023-10-31T06:58:30;10.20;95.50
292;DHT22;23311;48.776;9.162;2023-10-31T07:00:58;10.30;95.50
292;DHT22;23311;48.776;9.162;2023-10-31T07:03:27;10.30;95.50
292;DHT22;23311;48.776;9.162;2023-10-31T07:05:55;10.40;95.50
292;DHT22;23311;48.776;9.162;2023-10-31T07:08:24;10.40;95.50
292;DHT22;23311;48.776;9.162;2023-10-31T07:10:56;10.40;95.50
292;DHT22;23311;48.776;9.162;2023-10-31T07:13:28;10.40;95.50
292;DHT22;23311;48.776;9.162;2023-10-31T07:15:59;10.50;95.50
292;DHT22;23311;48.776;9.162;2023-10-31T07:18:28;10.50;95.50
292;DHT22;23311;48.776;9.162;2023-10-31T07:20:57;10.50;95.50
292;DHT22;23311;48.776;9.162;2023-10-31T07:23:25;10.60;95.50
292;DHT22;23311;48.776;9.162;2023-10-31T07:25:55;10.70;95.50
292;DHT22;23311;48.776;9.162;2023-10-31T07:28:23;10.80;95.50
292;DHT22;23311;48.776;9.162;2023-10-31T07:30:51;10.80;95.50
292;DHT22;23311;48.776;9.162;2023-10-31T07:33:20;10.80;95.50
292;DHT22;23311;48.776;9.162;2023-10-31T07:35:48;10.90;95.50
292;DHT22;23311;48.776;9.162;2023-10-31T07:38:16;10.90;95.50
292;DHT22;23311;48.776;9.162;2023-10-31T07:40:45;11.00;95.50
292;DHT22;23311;48.776;9.162;2023-10-31T07:43:19;10.90;95.50
292;DHT22;23311;48.776;9.162;2023-10-31T07:45:49;11.00;95.50
292;DHT22;23311;48.776;9.162;2023-10-31T07:48:17;11.10;95.50
292;DHT22;23311;48.776;9.162;2023-10-31T07:50:45;11.20;95.50
292;DHT22;23311;48.776;9.162;2023-10-31T07:53:13;11.20;95.50
292;DHT22;23311;48.776;9.162;2023-10-31T07:55:42;11.30;95.50
292;DHT22;23311;48.776;9.162;2023-10-31T07:58:10;11.30;95.50
292;DHT22;23311;48.776;9.162;2023-10-31T08:00:39;11.40;95.50
292;DHT22;23311;48.776;9.162;2023-10-31T08:03:07;11.50;95.50
292;DHT22;23311;48.776;9.162;2023-10-31T08:05:36;11.50;95.50
292;DHT22;23311;48.776;9.162;2023-10-31T08:08:04;11.60;95.50
292;DHT22;23311;48.776;9.162;2023-10-31T08:10:33;11.60;95.50
292;DHT22;23311;48.776;9.162;2023-10-31T08:13:01;11.70;95.50
292;DHT22;23311;48.776;9.162;2023-10-31T08:15:29;11.90;95.50
292;DHT22;23311;48.776;9.162;2023-10-31T08:17:59;11.90;95.50
292;DHT22;23311;48.776;9.162;2023-10-31T08:20:27;12.10;95.50
292;DHT22;23311;48.776;9.162;2023-10-31T08:23:00;12.20;95.50
292;DHT22;23311;48.776;9.162;2023-10-31T08:25:28;12.30;95.50
292;DHT22;23311;48.776;9.162;2023-10-31T08:27:57;12.40;95.50
292;DHT22;23311;48.776;9.162;2023-10-31T08:30:25;12.40;95.50
292;DHT22;23311;48.776;9.162;2023-10-31T08:32:54;12.50;95.50
292;DHT22;23311;48.776;9.162;2023-10-31T08:35:27;12.50;95.50
292;DHT22;23311;48.776;9.162;2023-10-31T08:37:55;12.60;95.50
292;DHT22;23311;48.776;9.162;2023-10-31T08:40:24;12.70;95.50
292;DHT22;23311;48.776;9.162;2023-10-31T08:42:52;12.80;95.50
292;DHT22;23311;48.776;9.162;2023-10-31T08:45:22;12.80;95.50
292;DHT22;23311;48.776;9.162;2023-10-31T08:47:51;12.80;95.50
292;DHT22;23311;48.776;9.162;2023-10-31T08:50:20;12.90;95.50
292;DHT22;23311;48.776;9.162;2023-10-31T08:52:50;12.80;95.50
292;DHT22;23311;48.776;9.162;2023-10-31T08:55:18;12.70;95.50
292;DHT22;23311;48.776;9.162;2023-10-31T08:57:47;12.80;95.50
292;DHT22;23311;48.776;9.162;2023-10-31T09:00:16;12.70;95.50
292;DHT22;23311;48.776;9.162;2023-10-31T09:02:44;12.90;95.50
292;DHT22;23311;48.776;9.162;2023-10-31T09:05:13;12.80;95.50
292;DHT22;23311;48.776;9.162;2023-10-31T09:07:41;12.80;95.50
292;DHT22;23311;48.776;9.162;2023-10-31T09:10:11;12.90;95.50
292;DHT22;23311;48.776;9.162;2023-10-31T09:12:39;13.00;95.50
292;DHT22;23311;48.776;9.162;2023-10-31T09:15:08;13.10;95.50
292;DHT22;23311;48.776;9.162;2023-10-31T09:17:37;13.10;95.50
292;DHT22;23311;48.776;9.162;2023-10-31T09:20:07;13.40;95.50
292;DHT22;23311;48.776;9.162;2023-10-31T09:22:35;13.60;95.50
292;DHT22;23311;48.776;9.162;2023-10-31T09:25:04;14.10;95.50
292;DHT22;23311;48.776;9.162;2023-10-31T09:27:34;14.20;95.50
292;DHT22;23311;48.776;9.162;2023-10-31T09:30:03;14.10;95.50
292;DHT22;23311;48.776;9.162;2023-10-31T09:32:31;14.20;95.50
292;DHT22;23311;48.776;9.162;2023-10-31T09:35:00;14.00;95.50
292;DHT22;23311;48.776;9.162;2023-10-31T09:37:29;13.10;95.50
292;DHT22;23311;48.776;9.162;2023-10-31T09:39:57;13.20;95.50
292;DHT22;23311;48.776;9.162;2023-10-31T09:42:25;13.30;95.50
292;DHT22;23311;48.776;9.162;2023-10-31T09:44:55;13.20;95.50
292;DHT22;23311;48.776;9.162;2023-10-31T09:47:24;13.10;95.50
292;DHT22;23311;48.776;9.162;2023-10-31T09:49:53;13.20;95.50
292;DHT22;23311;48.776;9.162;2023-10-31T09:52:22;13.00;95.50
292;DHT22;23311;48.776;9.162;2023-10-31T09:54:52;13.50;95.50
292;DHT22;23311;48.776;9.162;2023-10-31T09:57:21;13.90;95.50
292;DHT22;23311;48.776;9.162;2023-10-31T09:59:49;14.00;95.50
292;DHT22;23311;48.776;9.162;2023-10-31T10:02:22;13.80;95.50
292;DHT22;23311;48.776;9.162;2023-10-31T10:04:51;13.90;95.50
292;DHT22;23311;48.776;9.162;2023-10-31T10:07:19;13.60;95.50
292;DHT22;23311;48.776;9.162;2023-10-31T10:09:48;13.20;95.50
292;DHT22;23311;48.776;9.162;2023-10-31T10:12:16;13.50;95.50
292;DHT22;23311;48.776;9.162;2023-10-31T10:14:45;13.90;95.50
292;DHT22;23311;48.776;9.162;2023-10-31T10:17:14;13.50;95.50
292;DHT22;23311;48.776;9.162;2023-10-31T10:19:45;13.40;95.50
292;DHT22;23311;48.776;9.162;2023-10-31T10:22:13;13.70;95.50
292;DHT22;23311;48.776;9.162;2023-10-31T10:24:42;13.50;95.50
292;DHT22;23311;48.776;9.162;2023-10-31T10:27:10;13.50;95.50
292;DHT22;23311;48.776;9.162;2023-10-31T10:29:39;13.50;95.50
292;DHT22;23311;48.776;9.162;2023-10-31T10:32:08;13.20;95.50
292;DHT22;23311;48.776;9.162;2023-10-31T10:34:36;13.30;95.50
292;DHT22;23311;48.776;9.162;2023-10-31T10:37:06;13.60;95.50
292;DHT22;23311;48.776;9.162;2023-10-31T10:39:36;13.80;95.50
292;DHT22;23311;48.776;9.162;2023-10-31T10:42:09;13.80;95.50
292;DHT22;23311;48.776;9.162;2023-10-31T10:44:42;13.80;95.50
292;DHT22;23311;48.776;9.162;2023-10-31T10:47:12;13.60;95.50
292;DHT22;23311;48.776;9.162;2023-10-31T10:49:41;13.50;95.50
292;DHT22;23311;48.776;9.162;2023-10-31T10:52:28;13.70;95.50
292;DHT22;23311;48.776;9.162;2023-10-31T10:55:04;13.90;95.50
292;DHT22;23311;48.776;9.162;2023-10-31T10:57:38;13.90;95.50
292;DHT22;23311;48.776;9.162;2023-10-31T11:00:11;14.00;95.50
292;DHT22;23311;48.776;9.162;2023-10-31T11:02:43;14.10;95.50
292;DHT22;23311;48.776;9.162;2023-10-31T11:05:14;14.10;95.50
292;DHT22;23311;48.776;9.162;2023-10-31T11:07:47;14.10;95.50
292;DHT22;23311;48.776;9.162;2023-10-31T11:10:17;14.50;95.50
292;DHT22;23311;48.776;9.162;2023-10-31T11:12:45;14.90;95.50
292;DHT22;23311;48.776;9.162;2023-10-31T11:15:16;15.00;95.50
292;DHT22;23311;48.776;9.162;2023-10-31T11:17:45;14.60;95.50
292;DHT22;23311;48.776;9.162;2023-10-31T11:20:16;13.90;95.50
292;DHT22;23311;48.776;9.162;2023-10-31T11:22:46;14.20;95.50
292;DHT22;23311;48.776;9.162;2023-10-31T11:25:18;14.30;95.50
292;DHT22;23311;48.776;9.162;2023-10-31T11:28:12;14.00;95.50
292;DHT22;23311;48.776;9.162;2023-10-31T11:30:42;14.10;95.50
292;DHT22;23311;48.776;9.162;2023-10-31T11:33:15;14.30;95.50
292;DHT22;23311;48.776;9.162;2023-10-31T11:35:50;14.40;95.50
292;DHT22;23311;48.776;9.162;2023-10-31T11:38:31;14.40;95.50
292;DHT22;23311;48.776;9.162;2023-10-31T11:41:02;14.30;95.50
292;DHT22;23311;48.776;9.162;2023-10-31T11:43:50;14.30;95.50
292;DHT22;23311;48.776;9.162;2023-10-31T11:46:20;14.30;95.50
292;DHT22;23311;48.776;9.162;2023-10-31T11:48:51;14.50;95.50
292;DHT22;23311;48.776;9.162;2023-10-31T11:51:20;14.60;95.50
292;DHT22;23311;48.776;9.162;2023-10-31T11:53:50;14.50;95.50
292;DHT22;23311;48.776;9.162;2023-10-31T11:56:20;14.70;95.50
292;DHT22;23311;48.776;9.162;2023-10-31T11:58:58;14.80;95.50
292;DHT22;23311;48.776;9.162;2023-10-31T12:01:27;14.90;95.50
292;DHT22;23311;48.776;9.162;2023-10-31T12:03:59;14.60;95.50
292;DHT22;23311;48.776;9.162;2023-10-31T12:06:31;14.50;95.50
292;DHT22;23311;48.776;9.162;2023-10-31T12:09:01;14.70;95.50
292;DHT22;23311;48.776;9.162;2023-10-31T12:11:29;14.70;95.50
292;DHT22;23311;48.776;9.162;2023-10-31T12:13:59;14.50;95.50
292;DHT22;23311;48.776;9.162;2023-10-31T12:16:30;14.50;95.50
292;DHT22;23311;48.776;9.162;2023-10-31T12:18:59;14.50;95.50
292;DHT22;23311;48.776;9.162;2023-10-31T12:21:35;14.50;95.50
292;DHT22;23311;48.776;9.162;2023-10-31T12:24:06;14.20;95.50
292;DHT22;23311;48.776;9.162;2023-10-31T12:26:36;14.00;95.50
292;DHT22;23311;48.776;9.162;2023-10-31T12:29:09;14.00;95.50
292;DHT22;23311;48.776;9.162;2023-10-31T12:31:47;14.10;95.50
292;DHT22;23311;48.776;9.162;2023-10-31T12:34:17;14.10;95.50
292;DHT22;23311;48.776;9.162;2023-10-31T12:36:47;14.00;95.50
292;DHT22;23311;48.776;9.162;2023-10-31T12:39:20;13.90;95.50
292;DHT22;23311;48.776;9.162;2023-10-31T12:41:50;13.80;95.50
292;DHT22;23311;48.776;9.162;2023-10-31T12:44:23;13.80;95.50
292;DHT22;23311;48.776;9.162;2023-10-31T12:46:54;13.70;95.50
292;DHT22;23311;48.776;9.162;2023-10-31T12:49:23;13.70;95.50
292;DHT22;23311;48.776;9.162;2023-10-31T12:51:56;13.70;95.50
292;DHT22;23311;48.776;9.162;2023-10-31T12:54:30;13.90;95.50
292;DHT22;23311;48.776;9.162;2023-10-31T12:57:00;14.00;95.50
292;DHT22;23311;48.776;9.162;2023-10-31T12:59:29;13.90;95.50
292;DHT22;23311;48.776;9.162;2023-10-31T13:01:57;14.00;95.50
292;DHT22;23311;48.776;9.162;2023-10-31T13:04:26;14.10;95.50
292;DHT22;23311;48.776;9.162;2023-10-31T13:06:57;14.20;95.50
292;DHT22;23311;48.776;9.162;2023-10-31T13:09:30;14.20;95.50
292;DHT22;23311;48.776;9.162;2023-10-31T13:12:00;14.10;95.50
292;DHT22;23311;48.776;9.162;2023-10-31T13:14:29;14.20;95.50
292;DHT22;23311;48.776;9.162;2023-10-31T13:16:58;14.20;95.50
292;DHT22;23311;48.776;9.162;2023-10-31T13:19:26;14.40;95.50
292;DHT22;23311;48.776;9.162;2023-10-31T13:21:54;14.50;95.50
292;DHT22;23311;48.776;9.162;2023-10-31T13:24:23;14.60;95.50
292;DHT22;23311;48.776;9.162;2023-10-31T13:26:52;14.60;95.50
292;DHT22;23311;48.776;9.162;2023-10-31T13:29:20;14.60;95.50
292;DHT22;23311;48.776;9.162;2023-10-31T13:31:52;14.50;95.50
292;DHT22;23311;48.776;9.162;2023-10-31T13:34:20;14.30;95.50
292;DHT22;23311;48.776;9.162;2023-10-31T13:36:50;14.20;95.50
292;DHT22;23311;48.776;9.162;2023-10-31T13:39:21;14.30;95.50
292;DHT22;23311;48.776;9.162;2023-10-31T13:41:49;14.40;95.50
292;DHT22;23311;48.776;9.162;2023-10-31T13:44:19;14.50;95.50
292;DHT22;23311;48.776;9.162;2023-10-31T13:46:47;14.60;95.50
292;DHT22;23311;48.776;9.162;2023-10-31T13:49:16;14.50;95.50
292;DHT22;23311;48.776;9.162;2023-10-31T13:51:46;14.40;95.50
292;DHT22;23311;48.776;9.162;2023-10-31T13:54:14;14.30;95.50
292;DHT22;23311;48.776;9.162;2023-10-31T13:56:42;14.40;95.50
292;DHT22;23311;48.776;9.162;2023-10-31T13:59:10;14.50;95.50
292;DHT22;23311;48.776;9.162;2023-10-31T14:01:40;14.60;95.50
292;DHT22;23311;48.776;9.162;2023-10-31T14:04:10;14.70;95.50
292;DHT22;23311;48.776;9.162;2023-10-31T14:06:40;14.80;95.50
292;DHT22;23311;48.776;9.162;2023-10-31T14:09:10;14.70;95.50
292;DHT22;23311;48.776;9.162;2023-10-31T14:11:39;14.60;95.50
292;DHT22;23311;48.776;9.162;2023-10-31T14:14:08;14.50;95.50
292;DHT22;23311;48.776;9.162;2023-10-31T14:16:37;14.40;95.50
292;DHT22;23311;48.776;9.162;2023-10-31T14:19:07;14.40;95.50
292;DHT22;23311;48.776;9.162;2023-10-31T14:21:36;14.50;95.50
292;DHT22;23311;48.776;9.162;2023-10-31T14:24:05;14.50;95.50
292;DHT22;23311;48.776;9.162;2023-10-31T14:26:39;14.50;95.50
292;DHT22;23311;48.776;9.162;2023-10-31T14:29:11;14.40;95.50
292;DHT22;23311;48.776;9.162;2023-10-31T14:31:40;14.20;95.50
292;DHT22;23311;48.776;9.162;2023-10-31T14:34:10;14.10;95.50
292;DHT22;23311;48.776;9.162;2023-10-31T14:36:39;14.10;95.50
292;DHT22;23311;48.776;9.162;2023-10-31T14:39:07;14.20;95.50
292;DHT22;23311;48.776;9.162;2023-10-31T14:41:36;14.30;95.50
292;DHT22;23311;48.776;9.162;2023-10-31T14:44:05;14.30;95.50
292;DHT22;23311;48.776;9.162;2023-10-31T14:46:33;14.20;95.50
292;DHT22;23311;48.776;9.162;2023-10-31T14:49:01;14.00;95.50
292;DHT22;23311;48.776;9.162;2023-10-31T14:51:31;14.00;95.50
292;DHT22;23311;48.776;9.162;2023-10-31T14:53:59;13.80;95.50
292;DHT22;23311;48.776;9.162;2023-10-31T14:56:27;13.90;95.50
292;DHT22;23311;48.776;9.162;2023-10-31T14:58:56;13.90;95.50
292;DHT22;23311;48.776;9.162;2023-10-31T15:01:25;13.80;95.50
292;DHT22;23311;48.776;9.162;2023-10-31T15:03:53;13.60;95.50
292;DHT22;23311;48.776;9.162;2023-10-31T15:06:22;13.60;95.50
292;DHT22;23311;48.776;9.162;2023-10-31T15:08:51;13.50;95.50
292;DHT22;23311;48.776;9.162;2023-10-31T15:11:19;13.50;95.50
292;DHT22;23311;48.776;9.162;2023-10-31T15:13:47;13.50;95.50
292;DHT22;23311;48.776;9.162;2023-10-31T15:16:16;13.50;95.50
292;DHT22;23311;48.776;9.162;2023-10-31T15:18:44;13.50;95.50
292;DHT22;23311;48.776;9.162;2023-10-31T15:21:12;13.50;95.50
292;DHT22;23311;48.776;9.162;2023-10-31T15:23:40;13.30;95.50
292;DHT22;23311;48.776;9.162;2023-10-31T15:26:09;13.20;95.50
292;DHT22;23311;48.776;9.162;2023-10-31T15:28:40;13.00;95.50
292;DHT22;23311;48.776;9.162;2023-10-31T15:31:09;13.00;95.50
292;DHT22;23311;48.776;9.162;2023-10-31T15:33:38;12.90;95.50
292;DHT22;23311;48.776;9.162;2023-10-31T15:36:10;12.90;95.50
292;DHT22;23311;48.776;9.162;2023-10-31T15:38:38;12.80;95.50
292;DHT22;23311;48.776;9.162;2023-10-31T15:41:08;12.80;95.50
292;DHT22;23311;48.776;9.162;2023-10-31T15:43:44;12.80;95.50
292;DHT22;23311;48.776;9.162;2023-10-31T15:46:12;12.80;95.50
292;DHT22;23311;48.776;9.162;2023-10-31T15:48:41;12.70;95.50
292;DHT22;23311;48.776;9.162;2023-10-31T15:51:09;12.70;95.50
292;DHT22;23311;48.776;9.162;2023-10-31T15:53:37;12.70;95.50
292;DHT22;23311;48.776;9.162;2023-10-31T15:56:06;12.70;95.50
292;DHT22;23311;48.776;9.162;2023-10-31T15:58:38;12.70;95.50
292;DHT22;23311;48.776;9.162;2023-10-31T16:01:06;12.70;95.50
292;DHT22;23311;48.776;9.162;2023-10-31T16:03:35;12.70;95.50
292;DHT22;23311;48.776;9.162;2023-10-31T16:06:04;12.70;95.50
292;DHT22;23311;48.776;9.162;2023-10-31T16:08:32;12.70;95.50
292;DHT22;23311;48.776;9.162;2023-10-31T16:11:00;12.70;95.50
292;DHT22;23311;48.776;9.162;2023-10-31T16:13:29;12.60;95.50
292;DHT22;23311;48.776;9.162;2023-10-31T16:15:58;12.70;95.50
292;DHT22;23311;48.776;9.162;2023-10-31T16:18:26;12.60;95.50